Time;durP1;ratioP1;P1;durP2;ratioP2;P2;SDS_P1;SDS_P2;PMS_P1;PMS_P2;Temp;Humidity;BMP_temperature;BMP_pressure;BME280_temperature;BME280_humidity;BME280_pressure;Samples;Min_cycle;Max_cycle;Signal;HPM_P1;HPM_P2
2021/07/18 00:01:54;;;;;;;4.88;2.35;;;;;;;;;;4977243;28;20113;-74
2021/07/18 00:04:19;;;;;;;3.72;2.10;;;;;;;;;;4991909;28;20019;-74
2021/07/18 00:06:45;;;;;;;2.40;2.20;;;;;;;;;;4989884;28;20040;-74
2021/07/18 00:09:10;;;;;;;3.40;2.28;;;;;;;;;;4976374;28;20038;-74
2021/07/18 00:11:36;;;;;;;3.08;2.15;;;;;;;;;;4989895;28;20138;-74
2021/07/18 00:14:02;;;;;;;7.45;2.13;;;;;;;;;;4972738;28;20182;-74
2021/07/18 00:16:27;;;;;;;4.47;2.00;;;;;;;;;;4990875;28;20070;-74
2021/07/18 00:18:53;;;;;;;4.47;1.90;;;;;;;;;;4990392;28;20061;-74
2021/07/18 00:21:18;;;;;;;4.07;1.90;;;;;;;;;;4991236;28;20023;-76
2021/07/18 00:23:44;;;;;;;4.35;2.13;;;;;;;;;;4990695;28;20511;-74
2021/07/18 00:26:09;;;;;;;4.35;2.00;;;;;;;;;;4988714;28;20072;-75
2021/07/18 00:28:34;;;;;;;4.80;2.20;;;;;;;;;;4991228;28;20084;-74
2021/07/18 00:31:00;;;;;;;2.85;1.70;;;;;;;;;;5010468;28;20041;-74
2021/07/18 00:33:26;;;;;;;4.90;2.28;;;;;;;;;;4995784;28;20080;-74
2021/07/18 00:35:51;;;;;;;3.33;1.85;;;;;;;;;;4992635;28;20065;-75
2021/07/18 00:38:17;;;;;;;3.97;2.05;;;;;;;;;;4993513;28;20030;-74
2021/07/18 00:40:43;;;;;;;3.08;2.00;;;;;;;;;;4991794;28;20030;-74
2021/07/18 00:43:08;;;;;;;2.45;1.83;;;;;;;;;;4989849;28;20049;-74
2021/07/18 00:45:35;;;;;;;3.47;2.00;;;;;;;;;;4990166;28;20024;-75
2021/07/18 00:48:00;;;;;;;3.58;2.05;;;;;;;;;;4978329;28;20030;-74
2021/07/18 00:50:26;;;;;;;3.33;1.95;;;;;;;;;;4991291;28;20026;-75
2021/07/18 00:52:51;;;;;;;3.42;2.10;;;;;;;;;;4989652;28;20045;-75
2021/07/18 00:55:17;;;;;;;2.90;2.00;;;;;;;;;;4989493;28;20069;-75
2021/07/18 00:57:47;;;;;;;2.05;1.50;;;;;;;;;;4989319;28;20040;-75
2021/07/18 01:00:13;;;;;;;2.83;1.83;;;;;;;;;;4990409;28;20069;-76
2021/07/18 01:02:39;;;;;;;2.47;1.95;;;;;;;;;;4973088;28;20391;-74
2021/07/18 01:05:07;;;;;;;3.95;2.00;;;;;;;;;;4989305;28;20030;-75
2021/07/18 01:07:33;;;;;;;4.93;2.15;;;;;;;;;;4989208;28;20184;-75
2021/07/18 01:09:58;;;;;;;2.70;1.83;;;;;;;;;;4990610;28;20124;-74
2021/07/18 01:12:24;;;;;;;4.82;1.88;;;;;;;;;;4990064;28;20436;-75
2021/07/18 01:14:49;;;;;;;2.40;1.70;;;;;;;;;;4987499;28;20093;-74
2021/07/18 01:17:16;;;;;;;4.00;1.75;;;;;;;;;;4991194;28;20026;-75
2021/07/18 01:19:41;;;;;;;4.30;2.05;;;;;;;;;;4994243;28;20038;-74
2021/07/18 01:22:07;;;;;;;4.10;1.80;;;;;;;;;;4977583;28;20040;-74
2021/07/18 01:24:32;;;;;;;4.88;1.80;;;;;;;;;;5002143;28;20030;-74
2021/07/18 01:26:59;;;;;;;3.83;1.70;;;;;;;;;;4997881;28;20240;-74
2021/07/18 01:29:26;;;;;;;2.27;1.50;;;;;;;;;;5010750;28;21548;-75
2021/07/18 01:31:51;;;;;;;4.05;1.67;;;;;;;;;;4995377;28;20287;-75
2021/07/18 01:34:17;;;;;;;4.88;1.70;;;;;;;;;;4993403;28;20042;-75
2021/07/18 01:36:42;;;;;;;3.10;1.67;;;;;;;;;;5012864;28;20037;-75
2021/07/18 01:39:09;;;;;;;2.13;1.60;;;;;;;;;;5000384;28;20038;-75
2021/07/18 01:41:36;;;;;;;;;;;;;;;;;;4994397;28;20365;-74
2021/07/18 01:44:02;;;;;;;4.82;1.70;;;;;;;;;;5002981;28;19941;-74
2021/07/18 01:46:29;;;;;;;2.30;1.50;;;;;;;;;;3942785;28;10000173;-75
2021/07/18 01:48:54;;;;;;;3.75;1.63;;;;;;;;;;4990216;28;20022;-75
2021/07/18 01:51:24;;;;;;;1.60;1.45;;;;;;;;;;4990223;28;20039;-74
2021/07/18 01:53:52;;;;;;;3.63;1.50;;;;;;;;;;5011447;28;20057;-75
2021/07/18 01:56:19;;;;;;;3.20;1.50;;;;;;;;;;4985127;28;20087;-75
2021/07/18 01:58:47;;;;;;;3.58;1.60;;;;;;;;;;4994412;28;20023;-75
2021/07/18 02:01:13;;;;;;;3.75;1.60;;;;;;;;;;5002795;28;20080;-75
2021/07/18 02:03:39;;;;;;;3.58;1.80;;;;;;;;;;4997460;28;20027;-75
2021/07/18 02:06:04;;;;;;;4.13;1.65;;;;;;;;;;5008354;28;20101;-74
2021/07/18 02:08:30;;;;;;;3.85;1.70;;;;;;;;;;5009388;28;20474;-74
2021/07/18 02:10:55;;;;;;;2.35;1.58;;;;;;;;;;5008825;28;20058;-74
2021/07/18 02:13:21;;;;;;;2.33;1.50;;;;;;;;;;4993918;28;20073;-73
2021/07/18 02:15:46;;;;;;;2.47;1.60;;;;;;;;;;4992392;28;20066;-74
2021/07/18 02:18:12;;;;;;;4.03;1.52;;;;;;;;;;5007853;28;20025;-75
2021/07/18 02:20:38;;;;;;;2.88;1.85;;;;;;;;;;5014131;28;20022;-74
2021/07/18 02:23:03;;;;;;;2.10;1.50;;;;;;;;;;4994767;28;20045;-73
2021/07/18 02:25:29;;;;;;;2.47;1.60;;;;;;;;;;4994829;28;20027;-75
2021/07/18 02:27:55;;;;;;;5.07;1.50;;;;;;;;;;4986910;28;20030;-74
2021/07/18 02:30:22;;;;;;;3.92;1.88;;;;;;;;;;4984847;28;20033;-75
2021/07/18 02:32:49;;;;;;;1.80;1.60;;;;;;;;;;4997074;28;20021;-74
2021/07/18 02:35:15;;;;;;;3.65;1.73;;;;;;;;;;5003930;28;20027;-74
2021/07/18 02:37:41;;;;;;;3.40;1.52;;;;;;;;;;4991659;28;20026;-75
2021/07/18 02:40:09;;;;;;;5.57;1.45;;;;;;;;;;4992230;28;20381;-75
2021/07/18 02:42:35;;;;;;;3.97;1.50;;;;;;;;;;5003118;28;20034;-75
2021/07/18 02:45:00;;;;;;;3.60;1.80;;;;;;;;;;5003822;28;20034;-75
2021/07/18 02:47:26;;;;;;;2.40;1.42;;;;;;;;;;4992278;28;20134;-75
2021/07/18 02:49:51;;;;;;;2.17;1.65;;;;;;;;;;4979094;28;20027;-75
2021/07/18 02:52:17;;;;;;;2.35;1.77;;;;;;;;;;5000996;28;20034;-75
2021/07/18 02:54:43;;;;;;;3.53;1.40;;;;;;;;;;4992927;28;20571;-75
2021/07/18 02:57:08;;;;;;;2.83;1.50;;;;;;;;;;4992170;28;20030;-74
2021/07/18 02:59:33;;;;;;;3.40;1.48;;;;;;;;;;4990995;28;20455;-74
2021/07/18 03:02:00;;;;;;;3.28;1.75;;;;;;;;;;5006790;28;20093;-73
2021/07/18 03:04:29;;;;;;;2.78;1.80;;;;;;;;;;4994629;28;20030;-73
2021/07/18 03:06:54;;;;;;;2.53;1.70;;;;;;;;;;4993754;28;20216;-73
2021/07/18 03:09:23;;;;;;;5.03;1.55;;;;;;;;;;5010214;28;20384;-74
2021/07/18 03:11:50;;;;;;;3.65;1.33;;;;;;;;;;5010743;28;20038;-74
2021/07/18 03:14:15;;;;;;;2.58;1.48;;;;;;;;;;5009455;28;20042;-74
2021/07/18 03:16:41;;;;;;;2.67;1.50;;;;;;;;;;4992902;28;20038;-74
2021/07/18 03:19:06;;;;;;;2.78;1.50;;;;;;;;;;4992815;28;20499;-74
2021/07/18 03:21:34;;;;;;;1.70;1.50;;;;;;;;;;4980218;28;20030;-74
2021/07/18 03:24:01;;;;;;;3.13;1.63;;;;;;;;;;4992820;28;20022;-74
2021/07/18 03:26:26;;;;;;;3.58;1.60;;;;;;;;;;5000731;28;20053;-74
2021/07/18 03:28:51;;;;;;;3.45;1.42;;;;;;;;;;5012638;28;20534;-75
2021/07/18 03:31:17;;;;;;;3.03;1.98;;;;;;;;;;5024592;28;20033;-75
2021/07/18 03:33:42;;;;;;;1.92;1.73;;;;;;;;;;5021725;28;20388;-76
2021/07/18 03:36:07;;;;;;;3.53;1.80;;;;;;;;;;5014448;28;20033;-75
2021/07/18 03:38:33;;;;;;;3.13;1.50;;;;;;;;;;5000460;28;20030;-74
2021/07/18 03:40:58;;;;;;;3.07;1.40;;;;;;;;;;5009804;28;20032;-74
2021/07/18 03:43:24;;;;;;;1.95;1.65;;;;;;;;;;5009491;28;20030;-75
2021/07/18 03:45:49;;;;;;;2.50;1.70;;;;;;;;;;4986944;28;20030;-73
2021/07/18 03:48:14;;;;;;;5.25;1.80;;;;;;;;;;5006875;28;20036;-74
2021/07/18 03:50:42;;;;;;;2.63;1.73;;;;;;;;;;5012590;28;20030;-74
2021/07/18 03:53:10;;;;;;;2.92;1.80;;;;;;;;;;4993681;28;20391;-75
2021/07/18 03:55:35;;;;;;;2.60;1.70;;;;;;;;;;4991487;28;20117;-75
2021/07/18 03:58:00;;;;;;;2.72;1.80;;;;;;;;;;4991994;28;20117;-74
2021/07/18 04:00:26;;;;;;;4.63;1.70;;;;;;;;;;4990259;28;20046;-75
2021/07/18 04:02:51;;;;;;;2.42;1.27;;;;;;;;;;4991485;28;20642;-75
2021/07/18 04:05:16;;;;;;;3.67;1.60;;;;;;;;;;4993090;28;20042;-75
2021/07/18 04:07:42;;;;;;;2.63;1.60;;;;;;;;;;4980020;28;20109;-75
2021/07/18 04:10:08;;;;;;;3.95;1.85;;;;;;;;;;5012683;28;20057;-75
2021/07/18 04:12:33;;;;;;;2.92;1.58;;;;;;;;;;4992992;28;20073;-76
2021/07/18 04:14:58;;;;;;;5.03;1.42;;;;;;;;;;4999822;28;20492;-76
2021/07/18 04:17:24;;;;;;;4.28;1.77;;;;;;;;;;4991937;28;20045;-75
2021/07/18 04:19:49;;;;;;;2.53;1.60;;;;;;;;;;4992632;28;20498;-75
2021/07/18 04:22:15;;;;;;;3.15;1.70;;;;;;;;;;4980197;28;20026;-74
2021/07/18 04:24:40;;;;;;;3.47;1.70;;;;;;;;;;4986539;28;20030;-75
2021/07/18 04:27:06;;;;;;;3.67;1.80;;;;;;;;;;4992921;28;20037;-74
2021/07/18 04:29:31;;;;;;;3.20;1.85;;;;;;;;;;4992490;28;20113;-74
2021/07/18 04:31:57;;;;;;;2.38;1.58;;;;;;;;;;4990459;28;20048;-75
2021/07/18 04:34:22;;;;;;;4.18;1.88;;;;;;;;;;4989331;28;20022;-76
2021/07/18 04:36:47;;;;;;;3.75;1.70;;;;;;;;;;4995981;28;20037;-72
2021/07/18 04:39:13;;;;;;;2.53;1.80;;;;;;;;;;4992458;28;20369;-73
2021/07/18 04:41:38;;;;;;;3.35;2.00;;;;;;;;;;4990739;28;20525;-73
2021/07/18 04:44:05;;;;;;;4.57;2.10;;;;;;;;;;4989987;28;20464;-73
2021/07/18 04:46:31;;;;;;;3.40;1.98;;;;;;;;;;4975269;28;20038;-74
2021/07/18 04:48:56;;;;;;;2.25;2.05;;;;;;;;;;5006747;28;20061;-73
2021/07/18 04:51:21;;;;;;;3.47;1.90;;;;;;;;;;4976042;28;20476;-73
2021/07/18 04:53:47;;;;;;;2.65;2.40;;;;;;;;;;4998396;28;20032;-74
2021/07/18 04:56:12;;;;;;;3.97;2.50;;;;;;;;;;5005262;28;20076;-74
2021/07/18 04:58:38;;;;;;;4.25;2.80;;;;;;;;;;4991020;28;20386;-75
2021/07/18 05:01:05;;;;;;;4.22;2.95;;;;;;;;;;4990093;28;20034;-74
2021/07/18 05:03:30;;;;;;;5.18;3.10;;;;;;;;;;4995289;28;20117;-73
2021/07/18 05:05:56;;;;;;;5.80;3.58;;;;;;;;;;4993860;28;20112;-74
2021/07/18 05:08:21;;;;;;;4.30;3.30;;;;;;;;;;5010871;28;20036;-73
2021/07/18 05:10:46;;;;;;;5.05;3.50;;;;;;;;;;5009650;28;20369;-74
2021/07/18 05:13:12;;;;;;;4.75;3.42;;;;;;;;;;5002992;28;20518;-74
2021/07/18 05:15:37;;;;;;;7.20;4.05;;;;;;;;;;4990654;28;20425;-74
2021/07/18 05:18:11;;;;;;;6.93;4.00;;;;;;;;;;5001581;28;20028;-73
2021/07/18 05:20:36;;;;;;;6.45;4.10;;;;;;;;;;5012527;28;20022;-74
2021/07/18 05:23:02;;;;;;;6.57;4.88;;;;;;;;;;4996640;28;20032;-74
2021/07/18 05:25:27;;;;;;;7.57;4.70;;;;;;;;;;4997653;28;20034;-75
2021/07/18 05:27:52;;;;;;;8.25;5.00;;;;;;;;;;5002619;28;20041;-74
2021/07/18 05:30:18;;;;;;;8.05;5.10;;;;;;;;;;4996013;28;20259;-74
2021/07/18 05:32:43;;;;;;;7.32;5.18;;;;;;;;;;4994352;28;20062;-74
2021/07/18 05:35:09;;;;;;;6.78;4.78;;;;;;;;;;5013765;28;20029;-74
2021/07/18 05:37:35;;;;;;;8.30;4.87;;;;;;;;;;5003725;28;20502;-74
2021/07/18 05:40:01;;;;;;;7.72;4.75;;;;;;;;;;4994122;28;20301;-74
2021/07/18 05:42:26;;;;;;;6.72;4.72;;;;;;;;;;5000671;28;20637;-74
2021/07/18 05:44:51;;;;;;;5.90;4.53;;;;;;;;;;4992797;28;20034;-74
2021/07/18 05:47:17;;;;;;;7.30;4.68;;;;;;;;;;4991595;28;20511;-74
2021/07/18 05:49:42;;;;;;;7.20;4.57;;;;;;;;;;4994607;28;20065;-74
2021/07/18 05:52:08;;;;;;;9.52;4.90;;;;;;;;;;4984577;28;20042;-73
2021/07/18 05:54:38;;;;;;;9.25;5.13;;;;;;;;;;4998490;28;20022;-74
2021/07/18 05:57:05;;;;;;;8.07;5.35;;;;;;;;;;4995159;28;20079;-74
2021/07/18 05:59:30;;;;;;;10.75;6.00;;;;;;;;;;4978278;28;20030;-73
2021/07/18 06:01:56;;;;;;;11.73;6.15;;;;;;;;;;4994528;28;20053;-73
2021/07/18 06:04:21;;;;;;;9.63;7.00;;;;;;;;;;4993742;28;20033;-74
2021/07/18 06:06:46;;;;;;;9.38;6.32;;;;;;;;;;4993233;28;20026;-75
2021/07/18 06:09:12;;;;;;;9.77;6.95;;;;;;;;;;4994099;28;20467;-74
2021/07/18 06:11:37;;;;;;;10.07;7.25;;;;;;;;;;4993263;28;20030;-74
2021/07/18 06:14:03;;;;;;;15.75;7.50;;;;;;;;;;4992915;28;20042;-75
2021/07/18 06:16:28;;;;;;;12.55;7.03;;;;;;;;;;4994172;28;20025;-75
2021/07/18 06:18:54;;;;;;;11.45;6.65;;;;;;;;;;4983548;28;20033;-75
2021/07/18 06:21:19;;;;;;;8.35;6.00;;;;;;;;;;4993501;28;20169;-74
2021/07/18 06:23:45;;;;;;;8.55;6.85;;;;;;;;;;4977034;28;20034;-74
2021/07/18 06:26:11;;;;;;;10.17;6.40;;;;;;;;;;4994199;28;20029;-75
2021/07/18 06:28:36;;;;;;;11.82;6.70;;;;;;;;;;4977624;28;20030;-75
2021/07/18 06:31:02;;;;;;;9.40;6.03;;;;;;;;;;4994346;28;20022;-75
2021/07/18 06:33:27;;;;;;;14.18;6.57;;;;;;;;;;4999308;28;20360;-75
2021/07/18 06:35:53;;;;;;;11.05;6.63;;;;;;;;;;4994161;28;20130;-75
2021/07/18 06:38:18;;;;;;;11.02;6.50;;;;;;;;;;4992532;28;20432;-73
2021/07/18 06:40:44;;;;;;;8.88;5.72;;;;;;;;;;4995961;28;20641;-75
2021/07/18 06:43:09;;;;;;;11.35;6.15;;;;;;;;;;5000513;28;20064;-74
2021/07/18 06:45:36;;;;;;;10.30;6.65;;;;;;;;;;4994671;28;20030;-74
2021/07/18 06:48:01;;;;;;;10.13;5.93;;;;;;;;;;4990635;28;20023;-74
2021/07/18 06:50:27;;;;;;;9.20;5.70;;;;;;;;;;4990121;28;20095;-73
2021/07/18 06:52:52;;;;;;;12.35;6.13;;;;;;;;;;4981298;28;20041;-74
2021/07/18 06:55:18;;;;;;;9.18;5.60;;;;;;;;;;4995556;28;20193;-74
2021/07/18 06:57:50;;;;;;;12.00;5.93;;;;;;;;;;4992214;28;20034;-73
2021/07/18 07:00:17;;;;;;;9.45;5.45;;;;;;;;;;5004817;28;20507;-74
2021/07/18 07:02:43;;;;;;;9.65;5.85;;;;;;;;;;5001548;28;20121;-73
2021/07/18 07:05:09;;;;;;;9.43;6.00;;;;;;;;;;4988290;28;20102;-73
2021/07/18 07:07:34;;;;;;;7.97;5.63;;;;;;;;;;4997352;28;20033;-73
2021/07/18 07:09:59;;;;;;;7.50;5.57;;;;;;;;;;4990865;28;20383;-74
2021/07/18 07:12:25;;;;;;;7.65;5.80;;;;;;;;;;4975048;28;20022;-76
2021/07/18 07:14:51;;;;;;;7.97;5.30;;;;;;;;;;5000518;28;20040;-74
2021/07/18 07:17:16;;;;;;;10.23;5.85;;;;;;;;;;5000062;28;20451;-73
2021/07/18 07:19:42;;;;;;;9.25;5.80;;;;;;;;;;5001346;28;20026;-74
2021/07/18 07:22:08;;;;;;;8.00;6.07;;;;;;;;;;4999816;28;20017;-74
2021/07/18 07:24:33;;;;;;;11.43;5.90;;;;;;;;;;4988964;28;20038;-77
2021/07/18 07:26:59;;;;;;;11.13;7.50;;;;;;;;;;4995568;28;20021;-75
2021/07/18 07:29:24;;;;;;;14.85;7.30;;;;;;;;;;4997166;28;20034;-75
2021/07/18 07:31:50;;;;;;;14.38;7.70;;;;;;;;;;5000201;28;20022;-74
2021/07/18 07:34:15;;;;;;;13.25;7.82;;;;;;;;;;4992764;28;20411;-76
2021/07/18 07:36:40;;;;;;;12.23;7.22;;;;;;;;;;4979407;28;20033;-75
2021/07/18 07:39:06;;;;;;;11.88;7.78;;;;;;;;;;5005001;28;20030;-75
2021/07/18 07:41:32;;;;;;;14.02;7.97;;;;;;;;;;4999441;28;20021;-76
2021/07/18 07:43:59;;;;;;;12.27;8.13;;;;;;;;;;4999367;28;20022;-74
2021/07/18 07:46:25;;;;;;;10.02;7.97;;;;;;;;;;5000727;28;20088;-73
2021/07/18 07:48:51;;;;;;;10.07;7.45;;;;;;;;;;4999757;28;20038;-74
2021/07/18 07:51:16;;;;;;;10.32;8.27;;;;;;;;;;4995386;28;20148;-74
2021/07/18 07:53:41;;;;;;;9.98;8.38;;;;;;;;;;4999754;28;20784;-75
2021/07/18 07:56:07;;;;;;;12.20;8.52;;;;;;;;;;4983114;28;20491;-74
2021/07/18 07:58:32;;;;;;;12.30;7.97;;;;;;;;;;4981562;28;20048;-74
2021/07/18 08:00:58;;;;;;;11.27;8.48;;;;;;;;;;5000083;28;20034;-75
2021/07/18 08:03:24;;;;;;;12.10;8.40;;;;;;;;;;4999125;28;20072;-75
2021/07/18 08:05:50;;;;;;;12.00;8.50;;;;;;;;;;4976706;28;20100;-73
2021/07/18 08:08:16;;;;;;;11.25;8.07;;;;;;;;;;4990718;28;20037;-73
2021/07/18 08:10:42;;;;;;;10.38;8.68;;;;;;;;;;4988751;28;20049;-74
2021/07/18 08:13:07;;;;;;;10.88;7.70;;;;;;;;;;4990004;28;20022;-73
2021/07/18 08:15:34;;;;;;;11.40;8.38;;;;;;;;;;4990192;28;20080;-74
2021/07/18 08:18:02;;;;;;;11.25;7.90;;;;;;;;;;4989460;28;20038;-73
2021/07/18 08:20:28;;;;;;;9.63;7.53;;;;;;;;;;4275458;28;10000741;-73
2021/07/18 08:22:58;;;;;;;11.25;7.72;;;;;;;;;;4985366;28;20280;-74
2021/07/18 08:25:25;;;;;;;8.80;7.38;;;;;;;;;;4986042;28;20014;-73
2021/07/18 08:27:52;;;;;;;9.95;7.47;;;;;;;;;;4984377;28;20084;-74
2021/07/18 08:30:18;;;;;;;11.10;8.17;;;;;;;;;;4969149;28;20073;-74
2021/07/18 08:32:43;;;;;;;9.70;7.25;;;;;;;;;;4985731;28;20027;-73
2021/07/18 08:35:10;;;;;;;8.80;7.22;;;;;;;;;;4985831;28;20041;-73
2021/07/18 08:37:35;;;;;;;9.55;7.50;;;;;;;;;;4985845;28;20065;-74
2021/07/18 08:40:02;;;;;;;8.43;7.13;;;;;;;;;;4987129;28;20054;-73
2021/07/18 08:42:29;;;;;;;8.18;6.60;;;;;;;;;;4984595;28;20054;-73
2021/07/18 08:44:58;;;;;;;8.15;6.55;;;;;;;;;;4985490;28;20014;-72
2021/07/18 08:47:24;;;;;;;9.77;7.03;;;;;;;;;;4968131;28;20035;-73
2021/07/18 08:49:49;;;;;;;8.65;6.85;;;;;;;;;;4960570;28;20666;-73
2021/07/18 08:52:19;;;;;;;8.90;7.18;;;;;;;;;;4984991;28;20049;-73
2021/07/18 09:00:38;;;;;;;16.67;7.35;;;;;;;;;;5120336;27;20974;-65
2021/07/18 09:03:04;;;;;;;8.07;6.60;;;;;;;;;;5116612;28;20138;-65
2021/07/18 09:05:29;;;;;;;11.23;7.82;;;;;;;;;;5115233;28;20392;-65
2021/07/18 09:07:56;;;;;;;8.77;7.15;;;;;;;;;;5109860;28;20477;-68
2021/07/18 09:10:30;;;;;;;10.77;7.57;;;;;;;;;;5086107;28;20445;-65
2021/07/18 09:13:08;;;;;;;9.68;6.70;;;;;;;;;;5092729;28;20457;-64
2021/07/18 09:15:44;;;;;;;7.93;5.00;;;;;;;;;;5087274;28;20055;-67
2021/07/18 09:18:26;;;;;;;5.78;4.85;;;;;;;;;;5093642;28;20024;-68
2021/07/18 09:20:53;;;;;;;6.93;4.78;;;;;;;;;;5111998;27;20039;-67
2021/07/18 09:23:28;;;;;;;5.53;4.50;;;;;;;;;;5058550;28;20020;-64
2021/07/18 09:26:20;;;;;;;5.75;4.28;;;;;;;;;;5093328;28;20024;-66
2021/07/18 09:28:46;;;;;;;4.18;3.15;;;;;;;;;;5092519;28;20052;-68
2021/07/18 09:31:34;;;;;;;3.97;3.10;;;;;;;;;;5094195;28;20020;-64
2021/07/18 09:34:19;;;;;;;5.50;3.30;;;;;;;;;;5092375;28;20051;-65
2021/07/18 09:36:45;;;;;;;5.72;3.28;;;;;;;;;;5073074;28;20012;-65
2021/07/18 09:39:12;;;;;;;4.50;2.92;;;;;;;;;;5073827;28;20027;-66
2021/07/18 09:41:38;;;;;;;4.07;3.20;;;;;;;;;;5082162;28;20073;-64
2021/07/18 09:44:04;;;;;;;5.80;3.60;;;;;;;;;;5072797;28;20473;-67
2021/07/18 09:46:32;;;;;;;5.03;3.45;;;;;;;;;;5090542;28;20030;-68
2021/07/18 09:48:59;;;;;;;3.10;2.75;;;;;;;;;;5080338;28;21470;-64
2021/07/18 09:51:25;;;;;;;4.93;2.90;;;;;;;;;;5074934;28;20499;-66
2021/07/18 09:54:10;;;;;;;3.90;3.28;;;;;;;;;;5077218;28;20032;-67
2021/07/18 09:56:36;;;;;;;3.85;2.90;;;;;;;;;;5080464;28;20059;-65
2021/07/18 09:59:03;;;;;;;3.60;3.00;;;;;;;;;;5079631;28;20171;-66
2021/07/18 10:01:29;;;;;;;4.18;2.83;;;;;;;;;;5071224;28;20043;-64
2021/07/18 10:03:55;;;;;;;3.13;2.78;;;;;;;;;;5073744;28;20032;-65
2021/07/18 10:06:27;;;;;;;3.42;2.72;;;;;;;;;;5045995;28;20489;-70
2021/07/18 10:08:59;;;;;;;6.20;3.20;;;;;;;;;;5069754;28;20021;-69
2021/07/18 10:11:27;;;;;;;3.53;2.85;;;;;;;;;;5069874;28;20831;-63
2021/07/18 10:13:54;;;;;;;5.22;3.00;;;;;;;;;;5052065;28;20021;-65
2021/07/18 10:16:20;;;;;;;;;;;;;;;;;;5047742;28;20093;-66
2021/07/18 10:18:47;;;;;;;3.30;2.33;;;;;;;;;;5052066;28;20365;-68
2021/07/18 10:21:18;;;;;;;6.50;2.50;;;;;;;;;;5055562;28;20036;-67
2021/07/18 10:23:44;;;;;;;3.78;2.72;;;;;;;;;;5050906;28;20029;-67
2021/07/18 10:26:33;;;;;;;3.70;2.78;;;;;;;;;;5051951;28;20071;-67
2021/07/18 10:28:58;;;;;;;5.35;2.78;;;;;;;;;;5054633;28;20019;-70
2021/07/18 10:31:28;;;;;;;4.78;2.42;;;;;;;;;;5055688;28;20021;-65
2021/07/18 10:33:54;;;;;;;4.15;2.50;;;;;;;;;;5059084;28;20059;-67
2021/07/18 10:36:23;;;;;;;3.58;2.58;;;;;;;;;;5056978;28;20029;-67
2021/07/18 10:38:50;;;;;;;3.45;2.50;;;;;;;;;;5052812;28;20488;-67
2021/07/18 10:41:16;;;;;;;4.40;2.67;;;;;;;;;;5054663;28;20593;-65
2021/07/18 10:43:49;;;;;;;3.83;2.47;;;;;;;;;;5048376;28;20029;-68
2021/07/18 10:46:36;;;;;;;4.70;2.70;;;;;;;;;;5047289;28;20028;-66
2021/07/18 10:49:02;;;;;;;4.10;2.35;;;;;;;;;;5038512;28;20035;-64
2021/07/18 10:51:35;;;;;;;4.45;2.72;;;;;;;;;;5031234;28;20029;-68
2021/07/18 10:54:14;;;;;;;4.60;2.97;;;;;;;;;;5052622;28;20370;-67
2021/07/18 10:56:42;;;;;;;4.53;2.80;;;;;;;;;;5044197;28;20708;-69
2021/07/18 10:59:07;;;;;;;3.47;2.65;;;;;;;;;;5032319;28;20037;-70
2021/07/18 11:01:35;;;;;;;4.07;3.00;;;;;;;;;;5047974;28;20713;-66
2021/07/18 11:04:04;;;;;;;6.82;2.88;;;;;;;;;;5054367;28;20120;-65
2021/07/18 11:06:32;;;;;;;3.13;2.65;;;;;;;;;;5056471;28;20029;-67
2021/07/18 11:09:14;;;;;;;4.70;3.40;;;;;;;;;;5056912;28;20025;-66
2021/07/18 11:11:43;;;;;;;4.18;3.03;;;;;;;;;;5058090;28;20030;-67
2021/07/18 11:14:22;;;;;;;5.13;3.03;;;;;;;;;;5055937;28;20029;-68
2021/07/18 11:16:53;;;;;;;5.05;3.22;;;;;;;;;;5056381;28;20017;-64
2021/07/18 11:19:37;;;;;;;5.40;3.33;;;;;;;;;;5037640;28;20107;-68
2021/07/18 11:22:41;;;;;;;6.78;3.65;;;;;;;;;;5057005;28;20047;-67
2021/07/18 11:25:07;;;;;;;4.93;3.22;;;;;;;;;;5024847;28;20044;-67
2021/07/18 11:27:35;;;;;;;4.40;3.35;;;;;;;;;;5054566;28;20021;-66
2021/07/18 11:30:03;;;;;;;6.22;3.20;;;;;;;;;;5049697;28;20029;-67
2021/07/18 11:32:33;;;;;;;5.80;3.10;;;;;;;;;;5052879;28;20029;-67
2021/07/18 11:35:00;;;;;;;4.82;3.17;;;;;;;;;;5036347;28;20036;-65
2021/07/18 11:37:27;;;;;;;3.80;3.07;;;;;;;;;;5049836;28;20435;-67
2021/07/18 11:40:00;;;;;;;3.95;3.53;;;;;;;;;;5050340;28;20029;-64
2021/07/18 11:42:26;;;;;;;4.13;3.10;;;;;;;;;;5054176;28;20028;-65
2021/07/18 11:44:52;;;;;;;4.72;3.10;;;;;;;;;;5044034;28;20055;-65
2021/07/18 11:47:23;;;;;;;4.00;3.25;;;;;;;;;;5036667;28;20059;-66
2021/07/18 11:49:50;;;;;;;3.45;3.13;;;;;;;;;;5046447;28;20404;-68
2021/07/18 11:52:17;;;;;;;3.50;3.00;;;;;;;;;;5050346;28;20111;-63
2021/07/18 11:54:43;;;;;;;4.50;3.05;;;;;;;;;;5047465;28;20032;-65
2021/07/18 11:57:14;;;;;;;2.88;2.58;;;;;;;;;;5044049;28;20077;-65
2021/07/18 11:59:42;;;;;;;4.18;2.97;;;;;;;;;;5046266;28;20564;-64
2021/07/18 12:02:08;;;;;;;3.88;3.47;;;;;;;;;;5047568;28;20035;-64
2021/07/18 12:04:34;;;;;;;5.80;3.00;;;;;;;;;;5054771;28;20048;-69
2021/07/18 12:07:04;;;;;;;4.00;3.23;;;;;;;;;;5037954;28;20438;-65
2021/07/18 12:09:39;;;;;;;3.40;3.10;;;;;;;;;;5054789;28;20040;-68
2021/07/18 12:12:08;;;;;;;4.32;3.28;;;;;;;;;;5049362;28;20173;-65
2021/07/18 12:14:34;;;;;;;4.32;3.10;;;;;;;;;;5055971;28;20036;-67
2021/07/18 12:17:02;;;;;;;4.27;3.20;;;;;;;;;;5057670;28;20035;-66
2021/07/18 12:19:29;;;;;;;4.03;3.10;;;;;;;;;;5051730;28;20046;-63
2021/07/18 12:21:56;;;;;;;5.28;3.35;;;;;;;;;;5025558;28;133441;-67
2021/07/18 12:24:26;;;;;;;4.72;3.35;;;;;;;;;;5014422;28;20483;-63
2021/07/18 12:26:57;;;;;;;4.30;2.97;;;;;;;;;;5009249;28;66643;-65
2021/07/18 12:29:24;;;;;;;4.75;3.20;;;;;;;;;;5013188;28;20087;-62
2021/07/18 12:33:54;;;;;;;3.10;2.80;;;;;;;;;;5034895;27;69549;-65
2021/07/18 12:36:20;;;;;;;5.20;3.15;;;;;;;;;;5055667;28;70657;-64
2021/07/18 12:38:45;;;;;;;2.88;2.65;;;;;;;;;;5070832;28;20059;-64
2021/07/18 12:41:11;;;;;;;4.37;2.67;;;;;;;;;;5071657;28;20025;-66
2021/07/18 12:43:38;;;;;;;6.00;2.70;;;;;;;;;;5070592;28;20044;-66
2021/07/18 12:46:04;;;;;;;3.50;2.88;;;;;;;;;;5068487;28;20697;-65
2021/07/18 12:48:29;;;;;;;4.63;2.75;;;;;;;;;;5070871;28;20086;-68
2021/07/18 12:50:56;;;;;;;5.13;2.97;;;;;;;;;;5072774;28;20027;-63
2021/07/18 12:53:22;;;;;;;;;;;;;;;;;;5025519;28;20096;-66
2021/07/18 12:55:57;;;;;;;3.60;3.00;;;;;;;;;;5020533;28;19924;-68
2021/07/18 12:58:22;;;;;;;6.22;2.83;;;;;;;;;;5055216;28;20111;-65
2021/07/18 13:01:13;;;;;;;4.40;2.95;;;;;;;;;;5060885;28;20505;-65
2021/07/18 13:03:39;;;;;;;4.03;2.58;;;;;;;;;;5057422;28;20032;-64
2021/07/18 13:06:09;;;;;;;3.92;2.80;;;;;;;;;;5057478;28;78825;-64
2021/07/18 13:08:40;;;;;;;4.10;2.80;;;;;;;;;;5061180;28;20032;-65
2021/07/18 13:11:06;;;;;;;5.30;2.60;;;;;;;;;;5062432;28;20032;-63
2021/07/18 13:13:33;;;;;;;4.03;2.30;;;;;;;;;;5054712;28;68361;-64
2021/07/18 13:16:09;;;;;;;5.80;2.95;;;;;;;;;;5054317;28;20094;-64
2021/07/18 13:18:38;;;;;;;4.82;2.80;;;;;;;;;;5061013;28;20012;-65
2021/07/18 13:21:15;;;;;;;2.90;2.60;;;;;;;;;;5059167;28;20021;-67
2021/07/18 13:23:42;;;;;;;3.20;2.40;;;;;;;;;;5058611;28;20035;-66
2021/07/18 13:26:07;;;;;;;4.43;2.30;;;;;;;;;;5051686;28;20029;-66
2021/07/18 13:28:33;;;;;;;2.30;1.93;;;;;;;;;;5048734;28;20520;-65
2021/07/18 13:30:59;;;;;;;3.78;2.08;;;;;;;;;;5056180;28;20427;-65
2021/07/18 13:33:25;;;;;;;3.27;2.00;;;;;;;;;;5056005;28;20033;-64
2021/07/18 13:35:51;;;;;;;2.40;2.10;;;;;;;;;;5049207;28;20025;-67
2021/07/18 13:38:20;;;;;;;;;;;;;;;;;;5057066;28;20485;-67
2021/07/18 13:40:45;;;;;;;4.45;2.25;;;;;;;;;;5059559;28;19927;-65
2021/07/18 13:43:20;;;;;;;3.33;2.10;;;;;;;;;;5055298;28;20025;-68
2021/07/18 13:45:52;;;;;;;4.05;2.30;;;;;;;;;;5047642;28;20048;-62
2021/07/18 13:48:20;;;;;;;2.92;2.13;;;;;;;;;;5047567;28;20039;-67
2021/07/18 13:50:46;;;;;;;5.70;1.83;;;;;;;;;;5047047;28;20544;-68
2021/07/18 13:53:12;;;;;;;3.53;1.63;;;;;;;;;;5046345;28;20021;-64
2021/07/18 13:55:39;;;;;;;2.13;1.63;;;;;;;;;;5048360;28;20123;-67
2021/07/18 13:58:05;;;;;;;2.45;1.95;;;;;;;;;;5039469;28;20515;-66
2021/07/18 14:00:30;;;;;;;3.17;2.07;;;;;;;;;;5045323;28;20033;-64
2021/07/18 14:02:56;;;;;;;3.73;2.40;;;;;;;;;;5046538;28;20017;-67
2021/07/18 14:05:22;;;;;;;4.70;2.10;;;;;;;;;;5046433;28;20108;-63
2021/07/18 14:07:47;;;;;;;3.23;1.93;;;;;;;;;;5046879;28;20669;-65
2021/07/18 14:10:14;;;;;;;3.83;1.90;;;;;;;;;;5048329;28;20373;-65
2021/07/18 14:12:40;;;;;;;;;;;;;;;;;;5047606;28;20462;-66
2021/07/18 14:15:08;;;;;;;2.72;2.25;;;;;;;;;;5048442;28;19917;-67
2021/07/18 14:17:34;;;;;;;3.03;1.73;;;;;;;;;;5045775;28;20021;-66
2021/07/18 14:20:00;;;;;;;2.80;1.80;;;;;;;;;;5045813;28;20087;-63
2021/07/18 14:22:25;;;;;;;2.53;2.03;;;;;;;;;;5036192;28;20040;-63
2021/07/18 14:24:50;;;;;;;3.00;2.27;;;;;;;;;;5037415;28;20044;-67
2021/07/18 14:27:16;;;;;;;3.60;2.30;;;;;;;;;;5022952;28;20962;-67
2021/07/18 14:29:41;;;;;;;3.87;2.40;;;;;;;;;;5027630;28;20045;-69
2021/07/18 14:32:07;;;;;;;2.77;2.10;;;;;;;;;;5035168;28;20135;-66
2021/07/18 14:34:32;;;;;;;3.27;2.23;;;;;;;;;;5034670;28;20021;-66
2021/07/18 14:36:59;;;;;;;3.70;2.33;;;;;;;;;;5028767;28;20497;-69
2021/07/18 14:39:24;;;;;;;3.00;2.15;;;;;;;;;;5038554;28;20059;-67
2021/07/18 14:41:50;;;;;;;2.87;2.30;;;;;;;;;;5037993;28;20548;-67
2021/07/18 14:44:15;;;;;;;3.47;2.30;;;;;;;;;;5046985;28;20798;-68
2021/07/18 14:46:41;;;;;;;3.70;2.40;;;;;;;;;;5046272;28;20017;-68
2021/07/18 14:49:06;;;;;;;4.60;2.60;;;;;;;;;;5046429;28;20055;-68
2021/07/18 14:51:34;;;;;;;2.80;2.40;;;;;;;;;;5043775;28;20461;-65